sensor_id;sensor_type;location;lat;lon;timestamp;P1;durP1;ratioP1;P2;durP2;ratioP2
80138;SDS011;69467;59.842;17.604;2023-04-25T00:01:04;4.15;;;3.75;;
80138;SDS011;69467;59.842;17.604;2023-04-25T00:03:33;8.30;;;3.50;;
80138;SDS011;69467;59.842;17.604;2023-04-25T00:06:00;4.82;;;4.18;;
80138;SDS011;69467;59.842;17.604;2023-04-25T00:08:29;4.85;;;4.18;;
80138;SDS011;69467;59.842;17.604;2023-04-25T00:10:55;5.63;;;3.28;;
80138;SDS011;69467;59.842;17.604;2023-04-25T00:13:21;5.97;;;4.35;;
80138;SDS011;69467;59.842;17.604;2023-04-25T00:15:47;4.95;;;4.13;;
80138;SDS011;69467;59.842;17.604;2023-04-25T00:18:13;5.65;;;3.65;;
80138;SDS011;69467;59.842;17.604;2023-04-25T00:20:39;8.68;;;4.45;;
80138;SDS011;69467;59.842;17.604;2023-04-25T00:23:04;4.25;;;3.78;;
80138;SDS011;69467;59.842;17.604;2023-04-25T00:25:30;7.63;;;4.38;;
80138;SDS011;69467;59.842;17.604;2023-04-25T00:27:56;8.63;;;4.35;;
80138;SDS011;69467;59.842;17.604;2023-04-25T00:30:21;5.60;;;4.18;;
80138;SDS011;69467;59.842;17.604;2023-04-25T00:32:47;4.40;;;3.70;;
80138;SDS011;69467;59.842;17.604;2023-04-25T00:35:13;5.43;;;3.30;;
80138;SDS011;69467;59.842;17.604;2023-04-25T00:37:39;4.03;;;3.63;;
80138;SDS011;69467;59.842;17.604;2023-04-25T00:40:05;4.57;;;4.18;;
80138;SDS011;69467;59.842;17.604;2023-04-25T00:42:31;8.27;;;5.70;;
80138;SDS011;69467;59.842;17.604;2023-04-25T00:44:57;12.55;;;5.38;;
80138;SDS011;69467;59.842;17.604;2023-04-25T00:47:24;5.05;;;4.35;;
80138;SDS011;69467;59.842;17.604;2023-04-25T00:52:15;5.10;;;4.60;;
80138;SDS011;69467;59.842;17.604;2023-04-25T00:54:41;4.85;;;4.28;;
80138;SDS011;69467;59.842;17.604;2023-04-25T00:57:06;7.78;;;5.68;;
80138;SDS011;69467;59.842;17.604;2023-04-25T00:59:31;5.72;;;4.68;;
80138;SDS011;69467;59.842;17.604;2023-04-25T01:01:58;5.47;;;4.60;;
80138;SDS011;69467;59.842;17.604;2023-04-25T01:04:24;7.50;;;4.32;;
80138;SDS011;69467;59.842;17.604;2023-04-25T01:06:52;6.10;;;4.68;;
80138;SDS011;69467;59.842;17.604;2023-04-25T01:09:17;8.10;;;5.35;;
80138;SDS011;69467;59.842;17.604;2023-04-25T01:11:44;7.40;;;4.78;;
80138;SDS011;69467;59.842;17.604;2023-04-25T01:14:10;4.35;;;3.35;;
80138;SDS011;69467;59.842;17.604;2023-04-25T01:16:35;8.20;;;6.55;;
80138;SDS011;69467;59.842;17.604;2023-04-25T01:21:30;5.82;;;4.55;;
80138;SDS011;69467;59.842;17.604;2023-04-25T01:23:55;5.88;;;4.68;;
80138;SDS011;69467;59.842;17.604;2023-04-25T01:26:22;4.30;;;3.90;;
80138;SDS011;69467;59.842;17.604;2023-04-25T01:31:14;7.07;;;4.57;;
80138;SDS011;69467;59.842;17.604;2023-04-25T01:33:40;9.18;;;5.50;;
80138;SDS011;69467;59.842;17.604;2023-04-25T01:36:06;4.70;;;4.28;;
80138;SDS011;69467;59.842;17.604;2023-04-25T01:38:31;6.47;;;5.15;;
80138;SDS011;69467;59.842;17.604;2023-04-25T01:40:57;6.38;;;4.43;;
80138;SDS011;69467;59.842;17.604;2023-04-25T01:43:23;7.13;;;4.93;;
80138;SDS011;69467;59.842;17.604;2023-04-25T01:45:49;7.93;;;4.20;;
80138;SDS011;69467;59.842;17.604;2023-04-25T01:48:15;9.20;;;5.28;;
80138;SDS011;69467;59.842;17.604;2023-04-25T01:50:41;5.15;;;4.32;;
80138;SDS011;69467;59.842;17.604;2023-04-25T01:53:07;6.85;;;4.97;;
80138;SDS011;69467;59.842;17.604;2023-04-25T01:55:34;5.68;;;3.92;;
80138;SDS011;69467;59.842;17.604;2023-04-25T01:58:00;6.70;;;4.40;;
80138;SDS011;69467;59.842;17.604;2023-04-25T02:00:28;4.78;;;4.22;;
80138;SDS011;69467;59.842;17.604;2023-04-25T02:02:53;4.65;;;3.72;;
80138;SDS011;69467;59.842;17.604;2023-04-25T02:05:19;4.05;;;3.60;;
80138;SDS011;69467;59.842;17.604;2023-04-25T02:07:47;4.05;;;3.70;;
80138;SDS011;69467;59.842;17.604;2023-04-25T02:10:13;3.35;;;2.90;;
80138;SDS011;69467;59.842;17.604;2023-04-25T02:15:05;6.43;;;3.90;;
80138;SDS011;69467;59.842;17.604;2023-04-25T02:17:31;4.20;;;3.47;;
80138;SDS011;69467;59.842;17.604;2023-04-25T02:19:56;8.52;;;4.47;;
80138;SDS011;69467;59.842;17.604;2023-04-25T02:22:22;3.97;;;3.58;;
80138;SDS011;69467;59.842;17.604;2023-04-25T02:24:47;3.20;;;2.90;;
80138;SDS011;69467;59.842;17.604;2023-04-25T02:27:12;4.55;;;2.67;;
80138;SDS011;69467;59.842;17.604;2023-04-25T02:29:38;3.20;;;2.90;;
80138;SDS011;69467;59.842;17.604;2023-04-25T02:32:03;3.30;;;2.85;;
80138;SDS011;69467;59.842;17.604;2023-04-25T02:34:29;3.28;;;2.90;;
80138;SDS011;69467;59.842;17.604;2023-04-25T02:36:54;4.40;;;4.00;;
80138;SDS011;69467;59.842;17.604;2023-04-25T02:39:20;3.78;;;2.88;;
80138;SDS011;69467;59.842;17.604;2023-04-25T02:41:47;3.35;;;3.03;;
80138;SDS011;69467;59.842;17.604;2023-04-25T02:44:12;3.28;;;2.90;;
80138;SDS011;69467;59.842;17.604;2023-04-25T02:46:37;3.45;;;2.78;;
80138;SDS011;69467;59.842;17.604;2023-04-25T02:49:03;4.60;;;2.90;;
80138;SDS011;69467;59.842;17.604;2023-04-25T02:51:28;2.65;;;2.45;;
80138;SDS011;69467;59.842;17.604;2023-04-25T02:53:55;3.25;;;2.65;;
80138;SDS011;69467;59.842;17.604;2023-04-25T02:56:20;4.57;;;2.67;;
80138;SDS011;69467;59.842;17.604;2023-04-25T02:58:46;2.42;;;2.22;;
80138;SDS011;69467;59.842;17.604;2023-04-25T03:01:11;3.17;;;2.88;;
80138;SDS011;69467;59.842;17.604;2023-04-25T03:03:37;4.43;;;3.40;;
80138;SDS011;69467;59.842;17.604;2023-04-25T03:06:02;2.60;;;2.40;;
80138;SDS011;69467;59.842;17.604;2023-04-25T03:08:27;3.63;;;2.92;;
80138;SDS011;69467;59.842;17.604;2023-04-25T03:10:57;3.78;;;2.53;;
80138;SDS011;69467;59.842;17.604;2023-04-25T03:13:23;4.70;;;2.70;;
80138;SDS011;69467;59.842;17.604;2023-04-25T03:15:49;4.07;;;3.00;;
80138;SDS011;69467;59.842;17.604;2023-04-25T03:18:14;3.28;;;2.65;;
80138;SDS011;69467;59.842;17.604;2023-04-25T03:20:40;2.92;;;2.63;;
80138;SDS011;69467;59.842;17.604;2023-04-25T03:23:06;3.40;;;2.88;;
80138;SDS011;69467;59.842;17.604;2023-04-25T03:25:32;2.80;;;2.60;;
80138;SDS011;69467;59.842;17.604;2023-04-25T03:27:57;2.80;;;2.53;;
80138;SDS011;69467;59.842;17.604;2023-04-25T03:30:23;4.90;;;2.22;;
80138;SDS011;69467;59.842;17.604;2023-04-25T03:32:48;3.97;;;2.97;;
80138;SDS011;69467;59.842;17.604;2023-04-25T03:35:14;3.55;;;2.97;;
80138;SDS011;69467;59.842;17.604;2023-04-25T03:37:39;3.42;;;2.10;;
80138;SDS011;69467;59.842;17.604;2023-04-25T03:40:05;2.65;;;2.25;;
80138;SDS011;69467;59.842;17.604;2023-04-25T03:44:57;5.07;;;2.28;;
80138;SDS011;69467;59.842;17.604;2023-04-25T03:47:22;2.53;;;2.33;;
80138;SDS011;69467;59.842;17.604;2023-04-25T03:49:47;2.70;;;2.45;;
80138;SDS011;69467;59.842;17.604;2023-04-25T03:52:14;2.83;;;2.20;;
80138;SDS011;69467;59.842;17.604;2023-04-25T03:54:39;2.40;;;2.20;;
80138;SDS011;69467;59.842;17.604;2023-04-25T03:57:05;2.47;;;2.28;;
80138;SDS011;69467;59.842;17.604;2023-04-25T03:59:30;2.15;;;1.90;;
80138;SDS011;69467;59.842;17.604;2023-04-25T04:01:56;3.75;;;2.35;;
80138;SDS011;69467;59.842;17.604;2023-04-25T04:04:21;2.88;;;2.00;;
80138;SDS011;69467;59.842;17.604;2023-04-25T04:06:47;2.70;;;2.45;;
80138;SDS011;69467;59.842;17.604;2023-04-25T04:09:12;1.58;;;1.40;;
80138;SDS011;69467;59.842;17.604;2023-04-25T04:11:38;1.50;;;1.38;;
80138;SDS011;69467;59.842;17.604;2023-04-25T04:14:07;3.58;;;1.95;;
80138;SDS011;69467;59.842;17.604;2023-04-25T04:16:32;3.72;;;2.20;;
80138;SDS011;69467;59.842;17.604;2023-04-25T04:18:58;2.20;;;2.00;;
80138;SDS011;69467;59.842;17.604;2023-04-25T04:21:23;1.60;;;1.50;;
80138;SDS011;69467;59.842;17.604;2023-04-25T04:23:49;2.25;;;1.80;;
80138;SDS011;69467;59.842;17.604;2023-04-25T04:26:14;2.58;;;1.60;;
80138;SDS011;69467;59.842;17.604;2023-04-25T04:28:43;2.42;;;1.55;;
80138;SDS011;69467;59.842;17.604;2023-04-25T04:31:09;2.67;;;1.85;;
80138;SDS011;69467;59.842;17.604;2023-04-25T04:33:35;2.40;;;2.20;;
80138;SDS011;69467;59.842;17.604;2023-04-25T04:36:01;2.38;;;1.98;;
80138;SDS011;69467;59.842;17.604;2023-04-25T04:38:28;2.83;;;2.15;;
80138;SDS011;69467;59.842;17.604;2023-04-25T04:40:54;2.55;;;2.00;;
80138;SDS011;69467;59.842;17.604;2023-04-25T04:43:19;2.75;;;2.20;;
80138;SDS011;69467;59.842;17.604;2023-04-25T04:45:45;1.88;;;1.73;;
80138;SDS011;69467;59.842;17.604;2023-04-25T04:48:10;2.63;;;2.42;;
80138;SDS011;69467;59.842;17.604;2023-04-25T04:50:39;5.03;;;2.35;;
80138;SDS011;69467;59.842;17.604;2023-04-25T04:55:30;3.20;;;2.70;;
80138;SDS011;69467;59.842;17.604;2023-04-25T04:57:56;3.17;;;2.30;;
80138;SDS011;69467;59.842;17.604;2023-04-25T05:00:21;3.45;;;2.72;;
80138;SDS011;69467;59.842;17.604;2023-04-25T05:02:47;2.65;;;2.40;;
80138;SDS011;69467;59.842;17.604;2023-04-25T05:05:13;4.95;;;3.63;;
80138;SDS011;69467;59.842;17.604;2023-04-25T05:07:38;3.60;;;1.98;;
80138;SDS011;69467;59.842;17.604;2023-04-25T05:10:04;2.38;;;2.17;;
80138;SDS011;69467;59.842;17.604;2023-04-25T05:14:55;4.72;;;2.95;;
80138;SDS011;69467;59.842;17.604;2023-04-25T05:17:20;4.07;;;2.58;;
80138;SDS011;69467;59.842;17.604;2023-04-25T05:19:46;2.55;;;2.20;;
80138;SDS011;69467;59.842;17.604;2023-04-25T05:22:11;3.17;;;2.17;;
80138;SDS011;69467;59.842;17.604;2023-04-25T05:24:37;3.10;;;2.78;;
80138;SDS011;69467;59.842;17.604;2023-04-25T05:27:02;3.17;;;1.75;;
80138;SDS011;69467;59.842;17.604;2023-04-25T05:29:28;3.75;;;2.95;;
80138;SDS011;69467;59.842;17.604;2023-04-25T05:31:53;2.47;;;2.22;;
80138;SDS011;69467;59.842;17.604;2023-04-25T05:34:19;3.58;;;3.08;;
80138;SDS011;69467;59.842;17.604;2023-04-25T05:36:44;2.30;;;2.10;;
80138;SDS011;69467;59.842;17.604;2023-04-25T05:39:13;6.50;;;2.80;;
80138;SDS011;69467;59.842;17.604;2023-04-25T05:41:39;3.55;;;2.20;;
80138;SDS011;69467;59.842;17.604;2023-04-25T05:44:05;3.90;;;2.40;;
80138;SDS011;69467;59.842;17.604;2023-04-25T05:46:30;2.80;;;2.60;;
80138;SDS011;69467;59.842;17.604;2023-04-25T05:48:56;2.15;;;1.90;;
80138;SDS011;69467;59.842;17.604;2023-04-25T05:51:21;5.53;;;2.30;;
80138;SDS011;69467;59.842;17.604;2023-04-25T05:53:46;3.35;;;2.60;;
80138;SDS011;69467;59.842;17.604;2023-04-25T05:56:12;4.97;;;2.92;;
80138;SDS011;69467;59.842;17.604;2023-04-25T05:58:38;3.83;;;2.30;;
80138;SDS011;69467;59.842;17.604;2023-04-25T06:01:03;3.08;;;1.80;;
80138;SDS011;69467;59.842;17.604;2023-04-25T06:03:29;4.00;;;2.90;;
80138;SDS011;69467;59.842;17.604;2023-04-25T06:05:55;2.40;;;1.65;;
80138;SDS011;69467;59.842;17.604;2023-04-25T06:08:20;3.15;;;2.03;;
80138;SDS011;69467;59.842;17.604;2023-04-25T06:10:46;2.83;;;2.00;;
80138;SDS011;69467;59.842;17.604;2023-04-25T06:13:11;4.65;;;1.77;;
80138;SDS011;69467;59.842;17.604;2023-04-25T06:15:36;2.78;;;1.48;;
80138;SDS011;69467;59.842;17.604;2023-04-25T06:18:02;2.28;;;1.80;;
80138;SDS011;69467;59.842;17.604;2023-04-25T06:20:27;3.70;;;2.22;;
80138;SDS011;69467;59.842;17.604;2023-04-25T06:22:53;2.47;;;2.05;;
80138;SDS011;69467;59.842;17.604;2023-04-25T06:25:18;5.25;;;2.20;;
80138;SDS011;69467;59.842;17.604;2023-04-25T06:27:44;2.83;;;2.45;;
80138;SDS011;69467;59.842;17.604;2023-04-25T06:30:09;2.20;;;1.80;;
80138;SDS011;69467;59.842;17.604;2023-04-25T06:32:37;4.00;;;2.85;;
80138;SDS011;69467;59.842;17.604;2023-04-25T06:35:02;2.10;;;1.73;;
80138;SDS011;69467;59.842;17.604;2023-04-25T06:37:28;2.40;;;1.83;;
80138;SDS011;69467;59.842;17.604;2023-04-25T06:39:54;2.28;;;2.05;;
80138;SDS011;69467;59.842;17.604;2023-04-25T06:42:19;4.13;;;2.72;;
80138;SDS011;69467;59.842;17.604;2023-04-25T06:44:45;4.05;;;2.42;;
80138;SDS011;69467;59.842;17.604;2023-04-25T06:47:10;4.95;;;4.40;;
80138;SDS011;69467;59.842;17.604;2023-04-25T06:49:36;4.63;;;3.03;;
80138;SDS011;69467;59.842;17.604;2023-04-25T06:52:02;3.08;;;2.20;;
80138;SDS011;69467;59.842;17.604;2023-04-25T06:54:27;3.40;;;3.00;;
80138;SDS011;69467;59.842;17.604;2023-04-25T06:56:54;4.80;;;1.95;;
80138;SDS011;69467;59.842;17.604;2023-04-25T07:01:46;2.00;;;1.73;;
80138;SDS011;69467;59.842;17.604;2023-04-25T07:04:11;3.33;;;1.90;;
80138;SDS011;69467;59.842;17.604;2023-04-25T07:06:36;2.72;;;1.92;;
80138;SDS011;69467;59.842;17.604;2023-04-25T07:09:07;2.28;;;2.03;;
80138;SDS011;69467;59.842;17.604;2023-04-25T07:11:35;4.05;;;2.08;;
80138;SDS011;69467;59.842;17.604;2023-04-25T07:14:01;3.20;;;1.52;;
80138;SDS011;69467;59.842;17.604;2023-04-25T07:16:27;3.75;;;1.52;;
80138;SDS011;69467;59.842;17.604;2023-04-25T07:18:52;2.80;;;2.60;;
80138;SDS011;69467;59.842;17.604;2023-04-25T07:21:18;4.30;;;1.73;;
80138;SDS011;69467;59.842;17.604;2023-04-25T07:23:43;2.33;;;1.42;;
80138;SDS011;69467;59.842;17.604;2023-04-25T07:26:08;2.83;;;1.17;;
80138;SDS011;69467;59.842;17.604;2023-04-25T07:28:34;1.42;;;1.27;;
80138;SDS011;69467;59.842;17.604;2023-04-25T07:31:00;4.32;;;2.33;;
80138;SDS011;69467;59.842;17.604;2023-04-25T07:33:25;1.90;;;1.42;;
80138;SDS011;69467;59.842;17.604;2023-04-25T07:35:50;2.92;;;1.27;;
80138;SDS011;69467;59.842;17.604;2023-04-25T07:38:17;3.22;;;1.58;;
80138;SDS011;69467;59.842;17.604;2023-04-25T07:40:42;1.25;;;1.10;;
80138;SDS011;69467;59.842;17.604;2023-04-25T07:43:07;1.35;;;1.10;;
80138;SDS011;69467;59.842;17.604;2023-04-25T07:45:33;2.28;;;1.38;;
80138;SDS011;69467;59.842;17.604;2023-04-25T07:47:58;2.13;;;1.20;;
80138;SDS011;69467;59.842;17.604;2023-04-25T07:50:24;2.50;;;1.52;;
80138;SDS011;69467;59.842;17.604;2023-04-25T07:52:49;2.15;;;1.65;;
80138;SDS011;69467;59.842;17.604;2023-04-25T07:55:15;3.72;;;2.17;;
80138;SDS011;69467;59.842;17.604;2023-04-25T07:57:41;3.30;;;1.20;;
80138;SDS011;69467;59.842;17.604;2023-04-25T08:00:07;1.48;;;1.00;;
80138;SDS011;69467;59.842;17.604;2023-04-25T08:02:34;1.70;;;1.15;;
80138;SDS011;69467;59.842;17.604;2023-04-25T08:05:01;2.67;;;2.38;;
80138;SDS011;69467;59.842;17.604;2023-04-25T08:07:27;1.20;;;1.00;;
80138;SDS011;69467;59.842;17.604;2023-04-25T08:09:52;0.75;;;0.75;;
80138;SDS011;69467;59.842;17.604;2023-04-25T08:12:18;2.53;;;1.30;;
80138;SDS011;69467;59.842;17.604;2023-04-25T08:14:43;1.25;;;0.77;;
80138;SDS011;69467;59.842;17.604;2023-04-25T08:17:09;1.77;;;0.90;;
80138;SDS011;69467;59.842;17.604;2023-04-25T08:19:34;2.10;;;1.60;;
80138;SDS011;69467;59.842;17.604;2023-04-25T08:22:00;0.90;;;0.55;;
80138;SDS011;69467;59.842;17.604;2023-04-25T08:24:26;1.23;;;1.00;;
80138;SDS011;69467;59.842;17.604;2023-04-25T08:26:51;1.55;;;1.10;;
80138;SDS011;69467;59.842;17.604;2023-04-25T08:29:17;1.00;;;0.90;;
80138;SDS011;69467;59.842;17.604;2023-04-25T08:31:42;1.10;;;0.90;;
80138;SDS011;69467;59.842;17.604;2023-04-25T08:34:07;2.13;;;1.60;;
80138;SDS011;69467;59.842;17.604;2023-04-25T08:36:33;2.40;;;0.90;;
80138;SDS011;69467;59.842;17.604;2023-04-25T08:38:58;0.88;;;0.63;;
80138;SDS011;69467;59.842;17.604;2023-04-25T08:41:24;1.10;;;1.00;;
80138;SDS011;69467;59.842;17.604;2023-04-25T08:43:51;1.38;;;1.15;;
80138;SDS011;69467;59.842;17.604;2023-04-25T08:46:18;2.05;;;1.27;;
80138;SDS011;69467;59.842;17.604;2023-04-25T08:48:45;1.90;;;1.17;;
80138;SDS011;69467;59.842;17.604;2023-04-25T08:51:15;4.97;;;3.05;;
80138;SDS011;69467;59.842;17.604;2023-04-25T08:53:47;4.07;;;2.50;;
80138;SDS011;69467;59.842;17.604;2023-04-25T08:56:15;5.22;;;2.28;;
80138;SDS011;69467;59.842;17.604;2023-04-25T08:58:43;4.35;;;2.75;;
80138;SDS011;69467;59.842;17.604;2023-04-25T09:01:11;3.88;;;2.58;;
80138;SDS011;69467;59.842;17.604;2023-04-25T09:03:36;4.57;;;3.58;;
80138;SDS011;69467;59.842;17.604;2023-04-25T09:06:01;8.40;;;3.90;;
80138;SDS011;69467;59.842;17.604;2023-04-25T09:08:27;3.30;;;2.22;;
80138;SDS011;69467;59.842;17.604;2023-04-25T09:10:52;6.00;;;2.30;;
80138;SDS011;69467;59.842;17.604;2023-04-25T09:13:24;1.77;;;1.30;;
80138;SDS011;69467;59.842;17.604;2023-04-25T09:15:52;5.32;;;3.13;;
80138;SDS011;69467;59.842;17.604;2023-04-25T09:18:22;31.63;;;5.68;;
80138;SDS011;69467;59.842;17.604;2023-04-25T09:21:07;6.47;;;2.20;;
80138;SDS011;69467;59.842;17.604;2023-04-25T09:23:43;4.55;;;2.38;;
80138;SDS011;69467;59.842;17.604;2023-04-25T09:26:10;2.13;;;1.65;;
80138;SDS011;69467;59.842;17.604;2023-04-25T09:28:40;4.65;;;1.63;;
80138;SDS011;69467;59.842;17.604;2023-04-25T09:31:07;2.42;;;1.27;;
80138;SDS011;69467;59.842;17.604;2023-04-25T09:33:35;3.65;;;1.27;;
80138;SDS011;69467;59.842;17.604;2023-04-25T09:36:02;1.50;;;1.23;;
80138;SDS011;69467;59.842;17.604;2023-04-25T09:38:29;2.65;;;1.88;;
80138;SDS011;69467;59.842;17.604;2023-04-25T09:40:56;1.52;;;1.00;;
80138;SDS011;69467;59.842;17.604;2023-04-25T09:43:22;3.53;;;1.30;;
80138;SDS011;69467;59.842;17.604;2023-04-25T09:45:48;2.50;;;1.27;;
80138;SDS011;69467;59.842;17.604;2023-04-25T09:48:20;1.95;;;1.55;;
80138;SDS011;69467;59.842;17.604;2023-04-25T09:51:08;1.30;;;1.20;;
80138;SDS011;69467;59.842;17.604;2023-04-25T09:53:37;2.88;;;1.27;;
80138;SDS011;69467;59.842;17.604;2023-04-25T09:56:05;1.40;;;1.13;;
80138;SDS011;69467;59.842;17.604;2023-04-25T09:58:32;2.03;;;1.55;;
80138;SDS011;69467;59.842;17.604;2023-04-25T10:01:05;3.83;;;1.80;;
80138;SDS011;69467;59.842;17.604;2023-04-25T10:03:33;1.15;;;1.05;;
80138;SDS011;69467;59.842;17.604;2023-04-25T10:06:01;3.08;;;1.30;;
80138;SDS011;69467;59.842;17.604;2023-04-25T10:08:34;4.80;;;1.27;;
80138;SDS011;69467;59.842;17.604;2023-04-25T10:11:02;1.50;;;1.30;;
80138;SDS011;69467;59.842;17.604;2023-04-25T10:13:29;2.63;;;1.95;;
80138;SDS011;69467;59.842;17.604;2023-04-25T10:15:57;2.97;;;1.85;;
80138;SDS011;69467;59.842;17.604;2023-04-25T10:18:25;2.25;;;1.70;;
80138;SDS011;69467;59.842;17.604;2023-04-25T10:20:53;2.88;;;2.58;;
80138;SDS011;69467;59.842;17.604;2023-04-25T10:23:19;2.13;;;1.58;;
80138;SDS011;69467;59.842;17.604;2023-04-25T10:25:45;3.00;;;1.67;;
80138;SDS011;69467;59.842;17.604;2023-04-25T10:28:11;4.32;;;3.13;;
80138;SDS011;69467;59.842;17.604;2023-04-25T10:30:36;1.75;;;1.50;;
80138;SDS011;69467;59.842;17.604;2023-04-25T10:33:01;5.72;;;2.40;;
80138;SDS011;69467;59.842;17.604;2023-04-25T10:35:42;4.07;;;2.38;;
80138;SDS011;69467;59.842;17.604;2023-04-25T10:38:10;11.98;;;6.38;;
80138;SDS011;69467;59.842;17.604;2023-04-25T10:40:37;5.18;;;4.10;;
80138;SDS011;69467;59.842;17.604;2023-04-25T10:45:56;3.33;;;2.67;;
80138;SDS011;69467;59.842;17.604;2023-04-25T10:48:25;5.03;;;2.45;;
80138;SDS011;69467;59.842;17.604;2023-04-25T10:51:07;3.70;;;3.05;;
80138;SDS011;69467;59.842;17.604;2023-04-25T10:53:36;3.03;;;2.58;;
80138;SDS011;69467;59.842;17.604;2023-04-25T10:56:09;3.47;;;2.05;;
80138;SDS011;69467;59.842;17.604;2023-04-25T10:58:35;2.50;;;1.85;;
80138;SDS011;69467;59.842;17.604;2023-04-25T11:01:01;3.53;;;3.00;;
80138;SDS011;69467;59.842;17.604;2023-04-25T11:03:26;3.92;;;2.53;;
80138;SDS011;69467;59.842;17.604;2023-04-25T11:05:52;4.20;;;2.03;;
80138;SDS011;69467;59.842;17.604;2023-04-25T11:08:20;2.90;;;2.10;;
80138;SDS011;69467;59.842;17.604;2023-04-25T11:11:00;3.13;;;2.78;;
80138;SDS011;69467;59.842;17.604;2023-04-25T11:13:29;2.83;;;2.58;;
80138;SDS011;69467;59.842;17.604;2023-04-25T11:15:55;2.08;;;1.70;;
80138;SDS011;69467;59.842;17.604;2023-04-25T11:18:20;2.05;;;1.73;;
80138;SDS011;69467;59.842;17.604;2023-04-25T11:20:47;1.60;;;1.40;;
80138;SDS011;69467;59.842;17.604;2023-04-25T11:23:13;3.50;;;2.97;;
80138;SDS011;69467;59.842;17.604;2023-04-25T11:25:40;2.92;;;2.28;;
80138;SDS011;69467;59.842;17.604;2023-04-25T11:28:06;2.88;;;1.48;;
80138;SDS011;69467;59.842;17.604;2023-04-25T11:30:31;2.67;;;2.08;;
80138;SDS011;69467;59.842;17.604;2023-04-25T11:32:57;4.13;;;2.53;;
80138;SDS011;69467;59.842;17.604;2023-04-25T11:35:22;6.97;;;2.20;;
80138;SDS011;69467;59.842;17.604;2023-04-25T11:37:48;2.30;;;2.03;;
80138;SDS011;69467;59.842;17.604;2023-04-25T11:40:13;2.05;;;1.83;;
80138;SDS011;69467;59.842;17.604;2023-04-25T11:42:39;2.72;;;2.25;;
80138;SDS011;69467;59.842;17.604;2023-04-25T11:45:09;2.72;;;1.98;;
80138;SDS011;69467;59.842;17.604;2023-04-25T11:47:34;2.00;;;1.75;;
80138;SDS011;69467;59.842;17.604;2023-04-25T11:50:03;2.65;;;2.45;;
80138;SDS011;69467;59.842;17.604;2023-04-25T11:55:07;1.92;;;1.33;;
80138;SDS011;69467;59.842;17.604;2023-04-25T11:57:33;1.90;;;1.80;;
80138;SDS011;69467;59.842;17.604;2023-04-25T12:00:11;4.15;;;3.08;;
80138;SDS011;69467;59.842;17.604;2023-04-25T12:02:40;1.92;;;1.58;;
80138;SDS011;69467;59.842;17.604;2023-04-25T12:05:09;2.90;;;2.05;;
80138;SDS011;69467;59.842;17.604;2023-04-25T12:07:35;4.10;;;2.25;;
80138;SDS011;69467;59.842;17.604;2023-04-25T12:10:09;2.70;;;2.50;;
80138;SDS011;69467;59.842;17.604;2023-04-25T12:12:36;2.38;;;1.80;;
80138;SDS011;69467;59.842;17.604;2023-04-25T12:17:44;4.45;;;2.42;;
80138;SDS011;69467;59.842;17.604;2023-04-25T12:20:15;3.92;;;1.98;;
80138;SDS011;69467;59.842;17.604;2023-04-25T12:22:45;2.00;;;1.60;;
80138;SDS011;69467;59.842;17.604;2023-04-25T12:25:57;3.70;;;2.38;;
80138;SDS011;69467;59.842;17.604;2023-04-25T12:33:28;3.35;;;2.63;;
80138;SDS011;69467;59.842;17.604;2023-04-25T12:36:05;8.18;;;4.28;;
80138;SDS011;69467;59.842;17.604;2023-04-25T12:38:37;4.78;;;3.08;;
80138;SDS011;69467;59.842;17.604;2023-04-25T12:41:04;2.50;;;2.30;;
80138;SDS011;69467;59.842;17.604;2023-04-25T12:43:31;5.03;;;2.70;;
80138;SDS011;69467;59.842;17.604;2023-04-25T12:45:56;5.68;;;2.75;;
80138;SDS011;69467;59.842;17.604;2023-04-25T12:48:22;3.85;;;2.97;;
80138;SDS011;69467;59.842;17.604;2023-04-25T12:50:49;3.30;;;2.42;;
80138;SDS011;69467;59.842;17.604;2023-04-25T12:53:19;5.22;;;2.95;;
80138;SDS011;69467;59.842;17.604;2023-04-25T12:55:45;4.13;;;3.17;;
80138;SDS011;69467;59.842;17.604;2023-04-25T12:58:12;5.88;;;3.22;;
80138;SDS011;69467;59.842;17.604;2023-04-25T13:00:38;4.05;;;3.60;;
80138;SDS011;69467;59.842;17.604;2023-04-25T13:03:03;3.28;;;3.08;;
80138;SDS011;69467;59.842;17.604;2023-04-25T13:05:29;3.35;;;2.80;;
80138;SDS011;69467;59.842;17.604;2023-04-25T13:07:55;4.88;;;3.30;;
80138;SDS011;69467;59.842;17.604;2023-04-25T13:10:20;5.10;;;4.10;;
80138;SDS011;69467;59.842;17.604;2023-04-25T13:12:46;4.40;;;2.85;;
80138;SDS011;69467;59.842;17.604;2023-04-25T13:15:11;2.95;;;2.65;;
80138;SDS011;69467;59.842;17.604;2023-04-25T13:17:37;3.03;;;2.67;;
80138;SDS011;69467;59.842;17.604;2023-04-25T13:22:31;4.45;;;3.88;;
80138;SDS011;69467;59.842;17.604;2023-04-25T13:24:56;5.32;;;3.22;;
80138;SDS011;69467;59.842;17.604;2023-04-25T13:27:22;3.55;;;3.25;;
80138;SDS011;69467;59.842;17.604;2023-04-25T13:29:47;4.82;;;4.38;;
80138;SDS011;69467;59.842;17.604;2023-04-25T13:32:13;4.95;;;4.32;;
80138;SDS011;69467;59.842;17.604;2023-04-25T13:34:38;6.32;;;4.40;;
80138;SDS011;69467;59.842;17.604;2023-04-25T13:37:03;6.05;;;4.82;;
80138;SDS011;69467;59.842;17.604;2023-04-25T13:41:55;19.73;;;11.80;;
80138;SDS011;69467;59.842;17.604;2023-04-25T13:44:21;5.85;;;5.13;;
80138;SDS011;69467;59.842;17.604;2023-04-25T13:46:46;4.38;;;3.22;;
80138;SDS011;69467;59.842;17.604;2023-04-25T13:49:12;5.22;;;3.47;;
80138;SDS011;69467;59.842;17.604;2023-04-25T13:51:37;9.48;;;4.43;;
80138;SDS011;69467;59.842;17.604;2023-04-25T13:54:03;7.85;;;4.68;;
80138;SDS011;69467;59.842;17.604;2023-04-25T13:56:28;3.47;;;3.17;;
80138;SDS011;69467;59.842;17.604;2023-04-25T13:58:54;5.57;;;3.40;;
80138;SDS011;69467;59.842;17.604;2023-04-25T14:01:20;5.18;;;3.75;;
80138;SDS011;69467;59.842;17.604;2023-04-25T14:06:11;3.90;;;3.33;;
80138;SDS011;69467;59.842;17.604;2023-04-25T14:11:03;6.28;;;4.47;;
80138;SDS011;69467;59.842;17.604;2023-04-25T14:13:28;5.30;;;4.53;;
80138;SDS011;69467;59.842;17.604;2023-04-25T14:15:54;6.32;;;3.80;;
80138;SDS011;69467;59.842;17.604;2023-04-25T14:18:19;7.40;;;4.35;;
80138;SDS011;69467;59.842;17.604;2023-04-25T14:20:45;5.70;;;3.72;;
80138;SDS011;69467;59.842;17.604;2023-04-25T14:23:10;5.30;;;4.00;;
80138;SDS011;69467;59.842;17.604;2023-04-25T14:25:36;6.50;;;5.40;;
80138;SDS011;69467;59.842;17.604;2023-04-25T14:28:02;8.02;;;4.63;;
80138;SDS011;69467;59.842;17.604;2023-04-25T14:30:27;6.80;;;4.15;;
80138;SDS011;69467;59.842;17.604;2023-04-25T14:32:53;6.35;;;4.78;;
80138;SDS011;69467;59.842;17.604;2023-04-25T14:35:19;5.55;;;4.60;;
80138;SDS011;69467;59.842;17.604;2023-04-25T14:37:44;6.45;;;4.90;;
80138;SDS011;69467;59.842;17.604;2023-04-25T14:40:10;21.38;;;13.13;;
80138;SDS011;69467;59.842;17.604;2023-04-25T14:42:37;8.20;;;4.70;;
80138;SDS011;69467;59.842;17.604;2023-04-25T14:45:05;6.75;;;5.45;;
80138;SDS011;69467;59.842;17.604;2023-04-25T14:47:32;4.28;;;3.70;;
80138;SDS011;69467;59.842;17.604;2023-04-25T14:49:57;6.30;;;4.15;;
80138;SDS011;69467;59.842;17.604;2023-04-25T14:52:23;5.13;;;3.45;;
80138;SDS011;69467;59.842;17.604;2023-04-25T14:54:48;6.10;;;4.63;;
80138;SDS011;69467;59.842;17.604;2023-04-25T14:57:14;4.72;;;4.05;;
80138;SDS011;69467;59.842;17.604;2023-04-25T14:59:40;5.18;;;4.40;;
80138;SDS011;69467;59.842;17.604;2023-04-25T15:02:06;8.20;;;5.55;;
80138;SDS011;69467;59.842;17.604;2023-04-25T15:04:32;6.28;;;4.75;;
80138;SDS011;69467;59.842;17.604;2023-04-25T15:06:57;5.78;;;5.25;;
80138;SDS011;69467;59.842;17.604;2023-04-25T15:09:22;11.48;;;4.80;;
80138;SDS011;69467;59.842;17.604;2023-04-25T15:14:14;13.95;;;5.35;;